Terminal Aerodrome Forecast
Issued by NWS Springfield, MO

Home | Current Version | Previous Version | Text Only | Print | Product List | Glossary On
Versions: 1 2 3 4 5 6 7 8 9 10 11 12 13 14 15 16 17
624
FTUS43 KSGF 291720
TAFSGF
TAF
KSGF 291720Z 2918/3018 30005KT P6SM FEW150
     FM300200 09004KT P6SM SCT250
     FM300700 16004KT P6SM SCT250
     FM301500 19010KT P6SM SCT050=

USA.gov is the U.S. government's official web portal to all federal, state and local government web resources and services.